sensor_id;sensor_type;location;lat;lon;timestamp;temperature;humidity
18508;DHT22;9383;50.928;12.116;2022-07-23T00:01:21;18.50;90.60
18508;DHT22;9383;50.928;12.116;2022-07-23T00:03:48;18.30;90.80
18508;DHT22;9383;50.928;12.116;2022-07-23T00:06:15;18.30;90.50
18508;DHT22;9383;50.928;12.116;2022-07-23T00:08:42;18.30;90.60
18508;DHT22;9383;50.928;12.116;2022-07-23T00:11:08;18.30;90.70
18508;DHT22;9383;50.928;12.116;2022-07-23T00:13:34;18.30;91.00
18508;DHT22;9383;50.928;12.116;2022-07-23T00:16:00;18.30;91.10
18508;DHT22;9383;50.928;12.116;2022-07-23T00:18:26;18.20;91.20
18508;DHT22;9383;50.928;12.116;2022-07-23T00:20:52;18.20;91.60
18508;DHT22;9383;50.928;12.116;2022-07-23T00:23:19;18.10;91.70
18508;DHT22;9383;50.928;12.116;2022-07-23T00:25:48;18.10;91.90
18508;DHT22;9383;50.928;12.116;2022-07-23T00:28:14;18.00;92.10
18508;DHT22;9383;50.928;12.116;2022-07-23T00:30:40;18.00;91.90
18508;DHT22;9383;50.928;12.116;2022-07-23T00:33:07;18.00;92.20
18508;DHT22;9383;50.928;12.116;2022-07-23T00:35:36;18.00;92.10
18508;DHT22;9383;50.928;12.116;2022-07-23T00:38:08;18.00;92.30
18508;DHT22;9383;50.928;12.116;2022-07-23T00:40:38;18.00;92.00
18508;DHT22;9383;50.928;12.116;2022-07-23T00:43:05;18.00;92.20
18508;DHT22;9383;50.928;12.116;2022-07-23T00:45:31;18.00;92.20
18508;DHT22;9383;50.928;12.116;2022-07-23T00:47:58;18.00;92.00
18508;DHT22;9383;50.928;12.116;2022-07-23T00:52:51;18.10;92.30
18508;DHT22;9383;50.928;12.116;2022-07-23T00:57:44;18.10;92.60
18508;DHT22;9383;50.928;12.116;2022-07-23T01:00:13;18.10;92.60
18508;DHT22;9383;50.928;12.116;2022-07-23T01:02:40;18.10;92.90
18508;DHT22;9383;50.928;12.116;2022-07-23T01:05:09;18.10;92.60
18508;DHT22;9383;50.928;12.116;2022-07-23T01:07:36;18.10;92.70
18508;DHT22;9383;50.928;12.116;2022-07-23T01:10:04;18.10;92.50
18508;DHT22;9383;50.928;12.116;2022-07-23T01:12:30;18.10;92.70
18508;DHT22;9383;50.928;12.116;2022-07-23T01:15:00;18.10;92.70
18508;DHT22;9383;50.928;12.116;2022-07-23T01:17:26;18.10;92.50
18508;DHT22;9383;50.928;12.116;2022-07-23T01:19:54;18.10;92.70
18508;DHT22;9383;50.928;12.116;2022-07-23T01:22:20;18.10;92.50
18508;DHT22;9383;50.928;12.116;2022-07-23T01:24:47;18.10;92.70
18508;DHT22;9383;50.928;12.116;2022-07-23T01:27:13;18.10;92.80
18508;DHT22;9383;50.928;12.116;2022-07-23T01:29:39;18.00;92.80
18508;DHT22;9383;50.928;12.116;2022-07-23T01:32:06;18.00;93.00
18508;DHT22;9383;50.928;12.116;2022-07-23T01:34:32;18.00;92.80
18508;DHT22;9383;50.928;12.116;2022-07-23T01:36:58;18.00;93.00
18508;DHT22;9383;50.928;12.116;2022-07-23T01:39:25;18.00;92.90
18508;DHT22;9383;50.928;12.116;2022-07-23T01:41:51;18.00;93.20
18508;DHT22;9383;50.928;12.116;2022-07-23T01:44:17;18.10;93.40
18508;DHT22;9383;50.928;12.116;2022-07-23T01:46:43;18.00;93.30
18508;DHT22;9383;50.928;12.116;2022-07-23T01:49:09;18.00;93.60
18508;DHT22;9383;50.928;12.116;2022-07-23T01:51:35;18.00;93.40
18508;DHT22;9383;50.928;12.116;2022-07-23T01:54:01;18.00;93.60
18508;DHT22;9383;50.928;12.116;2022-07-23T01:56:28;18.00;93.60
18508;DHT22;9383;50.928;12.116;2022-07-23T01:58:54;18.00;93.50
18508;DHT22;9383;50.928;12.116;2022-07-23T02:01:20;18.00;93.80
18508;DHT22;9383;50.928;12.116;2022-07-23T02:03:46;18.00;93.50
18508;DHT22;9383;50.928;12.116;2022-07-23T02:06:12;18.10;93.80
18508;DHT22;9383;50.928;12.116;2022-07-23T02:08:38;18.10;94.00
18508;DHT22;9383;50.928;12.116;2022-07-23T02:11:04;18.10;93.70
18508;DHT22;9383;50.928;12.116;2022-07-23T02:13:30;18.10;94.10
18508;DHT22;9383;50.928;12.116;2022-07-23T02:15:56;18.00;93.80
18508;DHT22;9383;50.928;12.116;2022-07-23T02:18:22;18.00;94.00
18508;DHT22;9383;50.928;12.116;2022-07-23T02:20:48;18.00;93.90
18508;DHT22;9383;50.928;12.116;2022-07-23T02:23:14;17.90;94.20
18508;DHT22;9383;50.928;12.116;2022-07-23T02:25:40;18.10;94.30
18508;DHT22;9383;50.928;12.116;2022-07-23T02:28:06;18.00;94.10
18508;DHT22;9383;50.928;12.116;2022-07-23T02:30:32;18.00;94.40
18508;DHT22;9383;50.928;12.116;2022-07-23T02:32:58;18.00;94.20
18508;DHT22;9383;50.928;12.116;2022-07-23T02:35:25;18.00;94.60
18508;DHT22;9383;50.928;12.116;2022-07-23T02:37:51;17.90;94.20
18508;DHT22;9383;50.928;12.116;2022-07-23T02:40:18;17.90;94.30
18508;DHT22;9383;50.928;12.116;2022-07-23T02:42:44;17.30;94.50
18508;DHT22;9383;50.928;12.116;2022-07-23T02:45:10;17.70;94.60
18508;DHT22;9383;50.928;12.116;2022-07-23T02:47:36;17.60;94.80
18508;DHT22;9383;50.928;12.116;2022-07-23T02:50:02;17.70;94.90
18508;DHT22;9383;50.928;12.116;2022-07-23T02:52:30;18.20;95.20
18508;DHT22;9383;50.928;12.116;2022-07-23T02:57:23;17.50;95.10
18508;DHT22;9383;50.928;12.116;2022-07-23T02:59:49;17.50;95.30
18508;DHT22;9383;50.928;12.116;2022-07-23T03:02:15;17.50;95.10
18508;DHT22;9383;50.928;12.116;2022-07-23T03:04:41;17.50;95.30
18508;DHT22;9383;50.928;12.116;2022-07-23T03:07:08;17.40;95.30
18508;DHT22;9383;50.928;12.116;2022-07-23T03:09:34;17.50;95.10
18508;DHT22;9383;50.928;12.116;2022-07-23T03:12:00;17.50;95.40
18508;DHT22;9383;50.928;12.116;2022-07-23T03:14:26;17.40;95.30
18508;DHT22;9383;50.928;12.116;2022-07-23T03:16:54;17.40;95.50
18508;DHT22;9383;50.928;12.116;2022-07-23T03:19:20;17.40;95.40
18508;DHT22;9383;50.928;12.116;2022-07-23T03:21:46;17.40;95.00
18508;DHT22;9383;50.928;12.116;2022-07-23T03:24:12;17.40;95.20
18508;DHT22;9383;50.928;12.116;2022-07-23T03:26:38;17.30;95.10
18508;DHT22;9383;50.928;12.116;2022-07-23T03:29:05;17.40;95.30
18508;DHT22;9383;50.928;12.116;2022-07-23T03:31:31;17.30;95.30
18508;DHT22;9383;50.928;12.116;2022-07-23T03:33:58;17.30;95.10
18508;DHT22;9383;50.928;12.116;2022-07-23T03:36:25;17.30;95.40
18508;DHT22;9383;50.928;12.116;2022-07-23T03:41:19;17.20;95.40
18508;DHT22;9383;50.928;12.116;2022-07-23T03:43:46;17.20;95.60
18508;DHT22;9383;50.928;12.116;2022-07-23T03:46:12;17.20;95.70
18508;DHT22;9383;50.928;12.116;2022-07-23T03:48:39;17.20;95.80
18508;DHT22;9383;50.928;12.116;2022-07-23T03:51:05;17.10;95.70
18508;DHT22;9383;50.928;12.116;2022-07-23T03:53:31;17.10;95.90
18508;DHT22;9383;50.928;12.116;2022-07-23T03:55:57;17.00;95.90
18508;DHT22;9383;50.928;12.116;2022-07-23T03:58:23;17.10;96.10
18508;DHT22;9383;50.928;12.116;2022-07-23T04:00:49;17.00;96.10
18508;DHT22;9383;50.928;12.116;2022-07-23T04:03:15;17.00;96.20
18508;DHT22;9383;50.928;12.116;2022-07-23T04:05:41;17.00;96.20
18508;DHT22;9383;50.928;12.116;2022-07-23T04:08:07;16.80;95.90
18508;DHT22;9383;50.928;12.116;2022-07-23T04:10:34;16.80;96.10
18508;DHT22;9383;50.928;12.116;2022-07-23T04:13:00;16.70;95.80
18508;DHT22;9383;50.928;12.116;2022-07-23T04:15:26;16.70;95.80
18508;DHT22;9383;50.928;12.116;2022-07-23T04:17:52;16.70;96.00
18508;DHT22;9383;50.928;12.116;2022-07-23T04:20:19;16.70;95.80
18508;DHT22;9383;50.928;12.116;2022-07-23T04:22:45;16.70;95.90
18508;DHT22;9383;50.928;12.116;2022-07-23T04:25:11;16.70;95.60
18508;DHT22;9383;50.928;12.116;2022-07-23T04:27:37;16.70;95.80
18508;DHT22;9383;50.928;12.116;2022-07-23T04:30:03;16.60;95.60
18508;DHT22;9383;50.928;12.116;2022-07-23T04:32:30;16.70;95.30
18508;DHT22;9383;50.928;12.116;2022-07-23T04:34:56;16.70;95.50
18508;DHT22;9383;50.928;12.116;2022-07-23T04:37:23;16.70;95.10
18508;DHT22;9383;50.928;12.116;2022-07-23T04:39:49;16.70;95.10
18508;DHT22;9383;50.928;12.116;2022-07-23T04:42:15;16.70;95.20
18508;DHT22;9383;50.928;12.116;2022-07-23T04:44:41;16.70;94.90
18508;DHT22;9383;50.928;12.116;2022-07-23T04:47:07;16.70;95.10
18508;DHT22;9383;50.928;12.116;2022-07-23T04:49:33;16.80;94.70
18508;DHT22;9383;50.928;12.116;2022-07-23T04:51:59;16.70;94.90
18508;DHT22;9383;50.928;12.116;2022-07-23T04:54:26;16.80;94.90
18508;DHT22;9383;50.928;12.116;2022-07-23T04:56:51;16.80;94.80
18508;DHT22;9383;50.928;12.116;2022-07-23T04:59:17;16.80;94.80
18508;DHT22;9383;50.928;12.116;2022-07-23T05:01:43;16.80;94.70
18508;DHT22;9383;50.928;12.116;2022-07-23T05:04:09;16.80;94.80
18508;DHT22;9383;50.928;12.116;2022-07-23T05:06:35;16.80;94.80
18508;DHT22;9383;50.928;12.116;2022-07-23T05:09:01;16.80;94.80
18508;DHT22;9383;50.928;12.116;2022-07-23T05:11:28;16.80;94.70
18508;DHT22;9383;50.928;12.116;2022-07-23T05:13:54;16.90;94.70
18508;DHT22;9383;50.928;12.116;2022-07-23T05:18:46;16.90;94.50
18508;DHT22;9383;50.928;12.116;2022-07-23T05:21:12;17.00;94.70
18508;DHT22;9383;50.928;12.116;2022-07-23T05:23:38;17.10;94.30
18508;DHT22;9383;50.928;12.116;2022-07-23T05:26:04;17.10;94.20
18508;DHT22;9383;50.928;12.116;2022-07-23T05:28:30;17.10;94.20
18508;DHT22;9383;50.928;12.116;2022-07-23T05:30:56;17.20;94.20
18508;DHT22;9383;50.928;12.116;2022-07-23T05:33:23;17.20;94.20
18508;DHT22;9383;50.928;12.116;2022-07-23T05:35:49;17.20;94.10
18508;DHT22;9383;50.928;12.116;2022-07-23T05:38:15;17.30;94.00
18508;DHT22;9383;50.928;12.116;2022-07-23T05:43:07;17.30;93.70
18508;DHT22;9383;50.928;12.116;2022-07-23T05:45:33;17.40;93.90
18508;DHT22;9383;50.928;12.116;2022-07-23T05:47:59;17.50;93.90
18508;DHT22;9383;50.928;12.116;2022-07-23T05:50:25;18.60;94.10
18508;DHT22;9383;50.928;12.116;2022-07-23T05:52:51;17.60;93.80
18508;DHT22;9383;50.928;12.116;2022-07-23T05:55:17;17.60;93.60
18508;DHT22;9383;50.928;12.116;2022-07-23T05:57:43;17.60;93.50
18508;DHT22;9383;50.928;12.116;2022-07-23T06:00:10;17.70;93.60
18508;DHT22;9383;50.928;12.116;2022-07-23T06:02:38;17.70;94.00
18508;DHT22;9383;50.928;12.116;2022-07-23T06:05:05;17.70;93.70
18508;DHT22;9383;50.928;12.116;2022-07-23T06:07:33;17.80;93.70
18508;DHT22;9383;50.928;12.116;2022-07-23T06:10:00;17.80;93.50
18508;DHT22;9383;50.928;12.116;2022-07-23T06:12:26;17.90;93.30
18508;DHT22;9383;50.928;12.116;2022-07-23T06:14:52;17.90;93.30
18508;DHT22;9383;50.928;12.116;2022-07-23T06:17:18;18.00;93.20
18508;DHT22;9383;50.928;12.116;2022-07-23T06:19:44;18.00;93.10
18508;DHT22;9383;50.928;12.116;2022-07-23T06:22:10;18.00;93.10
18508;DHT22;9383;50.928;12.116;2022-07-23T06:24:37;17.90;93.10
18508;DHT22;9383;50.928;12.116;2022-07-23T06:27:03;18.10;93.20
18508;DHT22;9383;50.928;12.116;2022-07-23T06:29:30;18.10;93.20
18508;DHT22;9383;50.928;12.116;2022-07-23T06:31:56;18.10;93.20
18508;DHT22;9383;50.928;12.116;2022-07-23T06:34:22;18.20;93.30
18508;DHT22;9383;50.928;12.116;2022-07-23T06:36:48;18.20;93.30
18508;DHT22;9383;50.928;12.116;2022-07-23T06:39:14;18.30;93.30
18508;DHT22;9383;50.928;12.116;2022-07-23T06:41:40;18.30;93.30
18508;DHT22;9383;50.928;12.116;2022-07-23T06:44:06;18.30;93.20
18508;DHT22;9383;50.928;12.116;2022-07-23T06:46:32;18.40;93.20
18508;DHT22;9383;50.928;12.116;2022-07-23T06:48:58;18.40;93.20
18508;DHT22;9383;50.928;12.116;2022-07-23T06:51:24;18.40;93.20
18508;DHT22;9383;50.928;12.116;2022-07-23T06:53:50;18.50;93.30
18508;DHT22;9383;50.928;12.116;2022-07-23T06:56:16;18.60;93.20
18508;DHT22;9383;50.928;12.116;2022-07-23T06:58:42;18.60;93.20
18508;DHT22;9383;50.928;12.116;2022-07-23T07:01:08;18.60;93.30
18508;DHT22;9383;50.928;12.116;2022-07-23T07:03:34;18.70;92.80
18508;DHT22;9383;50.928;12.116;2022-07-23T07:06:01;18.80;92.90
18508;DHT22;9383;50.928;12.116;2022-07-23T07:08:28;18.80;92.90
18508;DHT22;9383;50.928;12.116;2022-07-23T07:10:54;18.90;92.90
18508;DHT22;9383;50.928;12.116;2022-07-23T07:13:20;19.00;92.80
18508;DHT22;9383;50.928;12.116;2022-07-23T07:15:46;19.00;92.80
18508;DHT22;9383;50.928;12.116;2022-07-23T07:18:12;19.10;92.80
18508;DHT22;9383;50.928;12.116;2022-07-23T07:20:38;19.20;92.80
18508;DHT22;9383;50.928;12.116;2022-07-23T07:23:04;19.30;92.70
18508;DHT22;9383;50.928;12.116;2022-07-23T07:25:30;19.30;92.60
18508;DHT22;9383;50.928;12.116;2022-07-23T07:27:56;19.40;92.60
18508;DHT22;9383;50.928;12.116;2022-07-23T07:30:22;19.50;92.10
18508;DHT22;9383;50.928;12.116;2022-07-23T07:32:48;19.50;91.90
18508;DHT22;9383;50.928;12.116;2022-07-23T07:35:14;19.50;91.90
18508;DHT22;9383;50.928;12.116;2022-07-23T07:37:40;19.50;91.80
18508;DHT22;9383;50.928;12.116;2022-07-23T07:40:07;19.60;91.70
18508;DHT22;9383;50.928;12.116;2022-07-23T07:42:33;19.60;91.40
18508;DHT22;9383;50.928;12.116;2022-07-23T07:45:00;19.60;91.40
18508;DHT22;9383;50.928;12.116;2022-07-23T07:47:26;19.70;91.40
18508;DHT22;9383;50.928;12.116;2022-07-23T07:49:53;19.70;91.40
18508;DHT22;9383;50.928;12.116;2022-07-23T07:52:19;19.80;91.30
18508;DHT22;9383;50.928;12.116;2022-07-23T07:54:45;19.80;91.30
18508;DHT22;9383;50.928;12.116;2022-07-23T07:57:11;19.90;91.40
18508;DHT22;9383;50.928;12.116;2022-07-23T07:59:37;20.00;91.40
18508;DHT22;9383;50.928;12.116;2022-07-23T08:02:03;20.00;91.10
18508;DHT22;9383;50.928;12.116;2022-07-23T08:04:29;20.10;91.10
18508;DHT22;9383;50.928;12.116;2022-07-23T08:06:55;20.10;91.20
18508;DHT22;9383;50.928;12.116;2022-07-23T08:11:47;20.10;90.60
18508;DHT22;9383;50.928;12.116;2022-07-23T08:14:14;20.20;90.70
18508;DHT22;9383;50.928;12.116;2022-07-23T08:16:40;20.10;90.70
18508;DHT22;9383;50.928;12.116;2022-07-23T08:19:06;20.10;90.80
18508;DHT22;9383;50.928;12.116;2022-07-23T08:21:32;20.20;91.20
18508;DHT22;9383;50.928;12.116;2022-07-23T08:23:58;20.20;91.10
18508;DHT22;9383;50.928;12.116;2022-07-23T08:26:24;20.30;91.00
18508;DHT22;9383;50.928;12.116;2022-07-23T08:28:50;20.30;91.10
18508;DHT22;9383;50.928;12.116;2022-07-23T08:31:16;20.40;91.10
18508;DHT22;9383;50.928;12.116;2022-07-23T08:33:43;20.40;90.80
18508;DHT22;9383;50.928;12.116;2022-07-23T08:36:09;20.40;90.80
18508;DHT22;9383;50.928;12.116;2022-07-23T08:38:35;20.60;91.00
18508;DHT22;9383;50.928;12.116;2022-07-23T08:41:02;20.60;90.90
18508;DHT22;9383;50.928;12.116;2022-07-23T08:43:31;20.70;90.60
18508;DHT22;9383;50.928;12.116;2022-07-23T08:46:00;20.80;90.60
18508;DHT22;9383;50.928;12.116;2022-07-23T08:48:33;20.90;90.50
18508;DHT22;9383;50.928;12.116;2022-07-23T08:51:03;21.00;90.60
18508;DHT22;9383;50.928;12.116;2022-07-23T08:53:32;20.90;90.40
18508;DHT22;9383;50.928;12.116;2022-07-23T08:56:03;20.90;90.20
18508;DHT22;9383;50.928;12.116;2022-07-23T08:58:30;21.00;90.00
18508;DHT22;9383;50.928;12.116;2022-07-23T09:00:57;21.00;90.00
18508;DHT22;9383;50.928;12.116;2022-07-23T09:03:28;21.00;90.10
18508;DHT22;9383;50.928;12.116;2022-07-23T09:05:57;21.10;90.00
18508;DHT22;9383;50.928;12.116;2022-07-23T09:08:41;21.00;90.00
18508;DHT22;9383;50.928;12.116;2022-07-23T09:11:10;21.00;89.90
18508;DHT22;9383;50.928;12.116;2022-07-23T09:13:40;21.00;89.80
18508;DHT22;9383;50.928;12.116;2022-07-23T09:16:15;21.10;89.60
18508;DHT22;9383;50.928;12.116;2022-07-23T09:18:51;21.10;89.70
18508;DHT22;9383;50.928;12.116;2022-07-23T09:24:01;21.10;89.50
18508;DHT22;9383;50.928;12.116;2022-07-23T09:26:40;21.00;89.00
18508;DHT22;9383;50.928;12.116;2022-07-23T09:29:16;21.00;89.50
18508;DHT22;9383;50.928;12.116;2022-07-23T09:31:54;21.00;90.10
18508;DHT22;9383;50.928;12.116;2022-07-23T09:34:22;20.90;90.30
18508;DHT22;9383;50.928;12.116;2022-07-23T09:36:55;20.80;90.30
18508;DHT22;9383;50.928;12.116;2022-07-23T09:39:44;20.70;90.20
18508;DHT22;9383;50.928;12.116;2022-07-23T09:42:25;20.60;90.60
18508;DHT22;9383;50.928;12.116;2022-07-23T09:44:54;20.60;90.90
18508;DHT22;9383;50.928;12.116;2022-07-23T09:47:23;20.50;90.90
18508;DHT22;9383;50.928;12.116;2022-07-23T09:50:04;20.50;91.10
18508;DHT22;9383;50.928;12.116;2022-07-23T09:52:44;20.40;91.20
18508;DHT22;9383;50.928;12.116;2022-07-23T09:55:15;20.40;91.50
18508;DHT22;9383;50.928;12.116;2022-07-23T09:57:44;20.30;91.50
18508;DHT22;9383;50.928;12.116;2022-07-23T10:00:12;20.30;91.50
18508;DHT22;9383;50.928;12.116;2022-07-23T10:02:39;20.30;91.70
18508;DHT22;9383;50.928;12.116;2022-07-23T10:05:06;20.30;91.70
18508;DHT22;9383;50.928;12.116;2022-07-23T10:07:36;20.20;91.70
18508;DHT22;9383;50.928;12.116;2022-07-23T10:10:04;20.10;92.00
18508;DHT22;9383;50.928;12.116;2022-07-23T10:12:31;20.00;92.20
18508;DHT22;9383;50.928;12.116;2022-07-23T10:15:16;20.00;92.60
18508;DHT22;9383;50.928;12.116;2022-07-23T10:17:43;19.90;92.60
18508;DHT22;9383;50.928;12.116;2022-07-23T10:20:09;19.90;92.70
18508;DHT22;9383;50.928;12.116;2022-07-23T10:22:47;19.90;92.90
18508;DHT22;9383;50.928;12.116;2022-07-23T10:25:44;19.90;92.90
18508;DHT22;9383;50.928;12.116;2022-07-23T10:34:14;20.00;93.30
18508;DHT22;9383;50.928;12.116;2022-07-23T10:37:06;20.10;93.40
18508;DHT22;9383;50.928;12.116;2022-07-23T10:39:40;20.10;93.20
18508;DHT22;9383;50.928;12.116;2022-07-23T10:42:10;20.20;93.10
18508;DHT22;9383;50.928;12.116;2022-07-23T10:47:10;20.10;92.90
18508;DHT22;9383;50.928;12.116;2022-07-23T10:49:49;20.20;93.20
18508;DHT22;9383;50.928;12.116;2022-07-23T10:54:55;20.40;93.20
18508;DHT22;9383;50.928;12.116;2022-07-23T10:57:27;20.50;92.70
18508;DHT22;9383;50.928;12.116;2022-07-23T11:02:30;20.60;92.80
18508;DHT22;9383;50.928;12.116;2022-07-23T11:07:32;20.80;92.70
18508;DHT22;9383;50.928;12.116;2022-07-23T11:09:59;22.20;92.50
18508;DHT22;9383;50.928;12.116;2022-07-23T11:20:19;21.30;91.20
18508;DHT22;9383;50.928;12.116;2022-07-23T11:22:50;21.30;91.30
18508;DHT22;9383;50.928;12.116;2022-07-23T11:27:54;21.40;90.80
18508;DHT22;9383;50.928;12.116;2022-07-23T11:35:46;21.40;90.70
18508;DHT22;9383;50.928;12.116;2022-07-23T11:38:20;21.30;90.50
18508;DHT22;9383;50.928;12.116;2022-07-23T11:40:52;21.40;90.70
18508;DHT22;9383;50.928;12.116;2022-07-23T11:43:22;21.40;90.60
18508;DHT22;9383;50.928;12.116;2022-07-23T11:45:51;21.50;90.60
18508;DHT22;9383;50.928;12.116;2022-07-23T11:48:28;21.50;90.80
18508;DHT22;9383;50.928;12.116;2022-07-23T11:50:57;21.70;90.50
18508;DHT22;9383;50.928;12.116;2022-07-23T11:53:25;21.80;90.60
18508;DHT22;9383;50.928;12.116;2022-07-23T11:55:54;22.00;90.00
18508;DHT22;9383;50.928;12.116;2022-07-23T11:58:30;22.00;90.20
18508;DHT22;9383;50.928;12.116;2022-07-23T12:00:57;22.20;89.90
18508;DHT22;9383;50.928;12.116;2022-07-23T12:03:23;22.20;90.10
18508;DHT22;9383;50.928;12.116;2022-07-23T12:05:56;22.30;89.00
18508;DHT22;9383;50.928;12.116;2022-07-23T12:08:23;22.50;88.90
18508;DHT22;9383;50.928;12.116;2022-07-23T12:10:50;22.60;87.80
18508;DHT22;9383;50.928;12.116;2022-07-23T12:13:20;22.60;87.60
18508;DHT22;9383;50.928;12.116;2022-07-23T12:15:52;22.70;86.60
18508;DHT22;9383;50.928;12.116;2022-07-23T12:18:24;22.70;86.20
18508;DHT22;9383;50.928;12.116;2022-07-23T12:20:53;22.70;85.40
18508;DHT22;9383;50.928;12.116;2022-07-23T12:23:23;22.70;85.80
18508;DHT22;9383;50.928;12.116;2022-07-23T12:25:51;22.60;86.10
18508;DHT22;9383;50.928;12.116;2022-07-23T12:28:27;22.70;86.50
18508;DHT22;9383;50.928;12.116;2022-07-23T12:30:56;22.70;86.40
18508;DHT22;9383;50.928;12.116;2022-07-23T12:33:33;22.80;86.30
18508;DHT22;9383;50.928;12.116;2022-07-23T12:36:03;22.80;86.60
18508;DHT22;9383;50.928;12.116;2022-07-23T12:38:57;22.90;87.00
18508;DHT22;9383;50.928;12.116;2022-07-23T12:41:25;22.90;85.70
18508;DHT22;9383;50.928;12.116;2022-07-23T12:43:51;23.00;85.90
18508;DHT22;9383;50.928;12.116;2022-07-23T12:46:19;23.00;86.30
18508;DHT22;9383;50.928;12.116;2022-07-23T12:48:53;23.00;85.90
18508;DHT22;9383;50.928;12.116;2022-07-23T12:51:22;23.00;85.00
18508;DHT22;9383;50.928;12.116;2022-07-23T12:54:06;23.00;85.70
18508;DHT22;9383;50.928;12.116;2022-07-23T12:56:38;23.00;85.50
18508;DHT22;9383;50.928;12.116;2022-07-23T12:59:11;23.00;85.70
18508;DHT22;9383;50.928;12.116;2022-07-23T13:01:56;23.10;84.50
18508;DHT22;9383;50.928;12.116;2022-07-23T13:04:25;23.00;85.00
18508;DHT22;9383;50.928;12.116;2022-07-23T13:06:57;23.00;84.70
18508;DHT22;9383;50.928;12.116;2022-07-23T13:09:29;23.00;85.00
18508;DHT22;9383;50.928;12.116;2022-07-23T13:11:56;22.90;85.80
18508;DHT22;9383;50.928;12.116;2022-07-23T13:14:24;22.90;85.80
18508;DHT22;9383;50.928;12.116;2022-07-23T13:16:52;22.90;86.20
18508;DHT22;9383;50.928;12.116;2022-07-23T13:19:19;22.90;85.30
18508;DHT22;9383;50.928;12.116;2022-07-23T13:21:47;22.90;85.70
18508;DHT22;9383;50.928;12.116;2022-07-23T13:24:13;22.90;85.90
18508;DHT22;9383;50.928;12.116;2022-07-23T13:26:40;22.90;85.20
18508;DHT22;9383;50.928;12.116;2022-07-23T13:29:06;23.00;86.10
18508;DHT22;9383;50.928;12.116;2022-07-23T13:31:34;23.00;85.00
18508;DHT22;9383;50.928;12.116;2022-07-23T13:34:03;23.00;85.30
18508;DHT22;9383;50.928;12.116;2022-07-23T13:36:29;23.00;86.10
18508;DHT22;9383;50.928;12.116;2022-07-23T13:38:55;23.10;85.40
18508;DHT22;9383;50.928;12.116;2022-07-23T13:41:21;23.00;85.70
18508;DHT22;9383;50.928;12.116;2022-07-23T13:43:47;23.00;85.50
18508;DHT22;9383;50.928;12.116;2022-07-23T13:46:15;23.10;85.80
18508;DHT22;9383;50.928;12.116;2022-07-23T13:48:41;23.10;85.60
18508;DHT22;9383;50.928;12.116;2022-07-23T13:51:07;23.10;85.70
18508;DHT22;9383;50.928;12.116;2022-07-23T13:53:34;23.10;86.00
18508;DHT22;9383;50.928;12.116;2022-07-23T13:56:00;23.20;86.20
18508;DHT22;9383;50.928;12.116;2022-07-23T13:58:26;23.30;85.10
18508;DHT22;9383;50.928;12.116;2022-07-23T14:00:53;23.30;84.70
18508;DHT22;9383;50.928;12.116;2022-07-23T14:03:20;23.30;84.50
18508;DHT22;9383;50.928;12.116;2022-07-23T14:05:51;23.40;82.50
18508;DHT22;9383;50.928;12.116;2022-07-23T14:08:18;23.40;82.50
18508;DHT22;9383;50.928;12.116;2022-07-23T14:10:45;23.50;82.20
18508;DHT22;9383;50.928;12.116;2022-07-23T14:13:11;23.50;80.90
18508;DHT22;9383;50.928;12.116;2022-07-23T14:15:37;23.40;81.90
18508;DHT22;9383;50.928;12.116;2022-07-23T14:18:06;23.50;81.20
18508;DHT22;9383;50.928;12.116;2022-07-23T14:20:33;23.60;81.10
18508;DHT22;9383;50.928;12.116;2022-07-23T14:22:59;23.60;81.30
18508;DHT22;9383;50.928;12.116;2022-07-23T14:25:26;23.70;79.80
18508;DHT22;9383;50.928;12.116;2022-07-23T14:27:53;23.70;80.10
18508;DHT22;9383;50.928;12.116;2022-07-23T14:30:19;23.80;80.30
18508;DHT22;9383;50.928;12.116;2022-07-23T14:32:45;23.80;80.30
18508;DHT22;9383;50.928;12.116;2022-07-23T14:37:39;24.00;78.50
18508;DHT22;9383;50.928;12.116;2022-07-23T14:40:06;24.00;79.20
18508;DHT22;9383;50.928;12.116;2022-07-23T14:42:33;24.00;79.30
18508;DHT22;9383;50.928;12.116;2022-07-23T14:44:59;24.10;78.80
18508;DHT22;9383;50.928;12.116;2022-07-23T14:47:25;24.10;78.10
18508;DHT22;9383;50.928;12.116;2022-07-23T14:49:51;24.20;77.70
18508;DHT22;9383;50.928;12.116;2022-07-23T14:52:17;24.30;77.80
18508;DHT22;9383;50.928;12.116;2022-07-23T14:54:43;24.30;76.30
18508;DHT22;9383;50.928;12.116;2022-07-23T14:57:09;24.30;75.90
18508;DHT22;9383;50.928;12.116;2022-07-23T14:59:36;24.30;74.20
18508;DHT22;9383;50.928;12.116;2022-07-23T15:02:02;24.40;73.60
18508;DHT22;9383;50.928;12.116;2022-07-23T15:04:28;24.40;71.50
18508;DHT22;9383;50.928;12.116;2022-07-23T15:06:54;24.40;71.70
18508;DHT22;9383;50.928;12.116;2022-07-23T15:09:21;24.40;72.30
18508;DHT22;9383;50.928;12.116;2022-07-23T15:11:47;24.50;72.40
18508;DHT22;9383;50.928;12.116;2022-07-23T15:14:13;24.60;72.20
18508;DHT22;9383;50.928;12.116;2022-07-23T15:16:39;24.60;71.40
18508;DHT22;9383;50.928;12.116;2022-07-23T15:19:05;24.60;71.60
18508;DHT22;9383;50.928;12.116;2022-07-23T15:21:31;24.70;69.90
18508;DHT22;9383;50.928;12.116;2022-07-23T15:23:58;24.60;70.10
18508;DHT22;9383;50.928;12.116;2022-07-23T15:26:28;24.60;70.10
18508;DHT22;9383;50.928;12.116;2022-07-23T15:29:00;24.60;70.40
18508;DHT22;9383;50.928;12.116;2022-07-23T15:31:29;24.60;70.90
18508;DHT22;9383;50.928;12.116;2022-07-23T15:33:55;24.70;71.10
18508;DHT22;9383;50.928;12.116;2022-07-23T15:36:21;24.70;70.90
18508;DHT22;9383;50.928;12.116;2022-07-23T15:38:47;24.80;70.30
18508;DHT22;9383;50.928;12.116;2022-07-23T15:41:14;24.80;70.50
18508;DHT22;9383;50.928;12.116;2022-07-23T15:43:40;24.80;70.60
18508;DHT22;9383;50.928;12.116;2022-07-23T15:46:06;24.90;70.00
18508;DHT22;9383;50.928;12.116;2022-07-23T15:48:36;24.90;70.10
18508;DHT22;9383;50.928;12.116;2022-07-23T15:51:04;24.90;70.10
18508;DHT22;9383;50.928;12.116;2022-07-23T15:53:32;25.00;69.90
18508;DHT22;9383;50.928;12.116;2022-07-23T15:55:59;25.00;70.60
18508;DHT22;9383;50.928;12.116;2022-07-23T15:58:27;25.10;69.80
18508;DHT22;9383;50.928;12.116;2022-07-23T16:00:54;25.10;69.80
18508;DHT22;9383;50.928;12.116;2022-07-23T16:03:21;25.10;68.60
18508;DHT22;9383;50.928;12.116;2022-07-23T16:05:47;25.10;68.10
18508;DHT22;9383;50.928;12.116;2022-07-23T16:08:13;25.00;68.50
18508;DHT22;9383;50.928;12.116;2022-07-23T16:10:40;25.00;67.80
18508;DHT22;9383;50.928;12.116;2022-07-23T16:13:06;25.00;68.30
18508;DHT22;9383;50.928;12.116;2022-07-23T16:15:32;24.90;68.60
18508;DHT22;9383;50.928;12.116;2022-07-23T16:17:58;25.00;69.10
18508;DHT22;9383;50.928;12.116;2022-07-23T16:20:24;25.00;68.90
18508;DHT22;9383;50.928;12.116;2022-07-23T16:22:50;24.90;66.80
18508;DHT22;9383;50.928;12.116;2022-07-23T16:25:17;24.90;67.30
18508;DHT22;9383;50.928;12.116;2022-07-23T16:27:43;24.80;67.40